sensor_id;sensor_type;location;lat;lon;timestamp;pressure;altitude;pressure_sealevel;temperature;humidity
45253;BME280;63171;50.520;30.486;2023-02-15T00:00:35;100909.13;;;1.75;65.21
45253;BME280;63171;50.520;30.486;2023-02-15T00:01:25;100911.72;;;1.75;65.75
45253;BME280;63171;50.520;30.486;2023-02-15T00:02:15;100903.09;;;1.76;65.40
45253;BME280;63171;50.520;30.486;2023-02-15T00:03:06;100903.94;;;1.78;65.62
45253;BME280;63171;50.520;30.486;2023-02-15T00:03:56;100907.44;;;1.74;66.11
45253;BME280;63171;50.520;30.486;2023-02-15T00:04:47;100910.88;;;1.72;66.17
45253;BME280;63171;50.520;30.486;2023-02-15T00:05:37;100907.44;;;1.71;66.02
45253;BME280;63171;50.520;30.486;2023-02-15T00:06:27;100909.16;;;1.71;65.94
45253;BME280;63171;50.520;30.486;2023-02-15T00:07:18;100910.88;;;1.75;66.30
45253;BME280;63171;50.520;30.486;2023-02-15T00:08:10;100916.88;;;1.72;66.06
45253;BME280;63171;50.520;30.486;2023-02-15T00:09:00;100912.56;;;1.76;66.18
45253;BME280;63171;50.520;30.486;2023-02-15T00:09:51;100907.41;;;1.76;66.71
45253;BME280;63171;50.520;30.486;2023-02-15T00:10:41;100914.31;;;1.75;66.39
45253;BME280;63171;50.520;30.486;2023-02-15T00:11:32;100908.25;;;1.78;66.68
45253;BME280;63171;50.520;30.486;2023-02-15T00:12:32;100910.81;;;1.78;66.64
45253;BME280;63171;50.520;30.486;2023-02-15T00:13:23;100909.97;;;1.77;66.96
45253;BME280;63171;50.520;30.486;2023-02-15T00:14:14;100909.09;;;1.78;67.00
45253;BME280;63171;50.520;30.486;2023-02-15T00:15:06;100907.38;;;1.79;66.73
45253;BME280;63171;50.520;30.486;2023-02-15T00:16:00;100904.75;;;1.82;66.93
45253;BME280;63171;50.520;30.486;2023-02-15T00:16:51;100906.47;;;1.82;67.21
45253;BME280;63171;50.520;30.486;2023-02-15T00:17:42;100901.38;;;1.77;67.29
45253;BME280;63171;50.520;30.486;2023-02-15T00:18:33;100899.66;;;1.73;66.88
45253;BME280;63171;50.520;30.486;2023-02-15T00:19:22;100904.00;;;1.71;67.13
45253;BME280;63171;50.520;30.486;2023-02-15T00:20:13;100904.84;;;1.74;67.33
45253;BME280;63171;50.520;30.486;2023-02-15T00:21:04;100902.25;;;1.76;67.58
45253;BME280;63171;50.520;30.486;2023-02-15T00:21:55;100908.25;;;1.76;67.20
45253;BME280;63171;50.520;30.486;2023-02-15T00:22:45;100904.03;;;1.68;67.41
45253;BME280;63171;50.520;30.486;2023-02-15T00:23:37;100909.22;;;1.66;67.37
45253;BME280;63171;50.520;30.486;2023-02-15T00:24:27;100901.47;;;1.66;67.08
45253;BME280;63171;50.520;30.486;2023-02-15T00:25:18;100910.91;;;1.69;67.30
45253;BME280;63171;50.520;30.486;2023-02-15T00:26:09;100908.28;;;1.72;67.48
45253;BME280;63171;50.520;30.486;2023-02-15T00:27:01;100902.31;;;1.68;67.28
45253;BME280;63171;50.520;30.486;2023-02-15T00:27:51;100911.75;;;1.71;67.87
45253;BME280;63171;50.520;30.486;2023-02-15T00:28:42;100906.53;;;1.77;67.59
45253;BME280;63171;50.520;30.486;2023-02-15T00:29:31;100910.81;;;1.78;67.75
45253;BME280;63171;50.520;30.486;2023-02-15T00:30:22;100909.06;;;1.80;67.56
45253;BME280;63171;50.520;30.486;2023-02-15T00:31:13;100901.34;;;1.80;67.45
45253;BME280;63171;50.520;30.486;2023-02-15T00:32:04;100911.72;;;1.75;67.98
45253;BME280;63171;50.520;30.486;2023-02-15T00:32:53;100911.66;;;1.80;67.82
45253;BME280;63171;50.520;30.486;2023-02-15T00:33:44;100911.75;;;1.71;67.94
45253;BME280;63171;50.520;30.486;2023-02-15T00:34:34;100913.47;;;1.69;67.86
45253;BME280;63171;50.520;30.486;2023-02-15T00:35:24;100910.94;;;1.64;67.35
45253;BME280;63171;50.520;30.486;2023-02-15T00:36:14;100911.75;;;1.71;68.03
45253;BME280;63171;50.520;30.486;2023-02-15T00:37:04;100909.22;;;1.66;67.57
45253;BME280;63171;50.520;30.486;2023-02-15T00:37:55;100920.34;;;1.71;67.66
45253;BME280;63171;50.520;30.486;2023-02-15T00:38:47;100911.75;;;1.69;67.51
45253;BME280;63171;50.520;30.486;2023-02-15T00:39:38;100917.75;;;1.73;68.00
45253;BME280;63171;50.520;30.486;2023-02-15T00:40:29;100919.44;;;1.78;67.55
45253;BME280;63171;50.520;30.486;2023-02-15T00:41:20;100918.59;;;1.73;67.75
45253;BME280;63171;50.520;30.486;2023-02-15T00:42:09;100920.31;;;1.73;68.09
45253;BME280;63171;50.520;30.486;2023-02-15T00:43:00;100920.31;;;1.76;68.09
45253;BME280;63171;50.520;30.486;2023-02-15T00:43:50;100928.00;;;1.82;67.81
45253;BME280;63171;50.520;30.486;2023-02-15T00:44:40;100920.25;;;1.81;67.53
45253;BME280;63171;50.520;30.486;2023-02-15T00:45:30;100925.47;;;1.76;67.54
45253;BME280;63171;50.520;30.486;2023-02-15T00:46:20;100926.22;;;1.86;68.11
45253;BME280;63171;50.520;30.486;2023-02-15T00:47:10;100927.13;;;1.83;67.49
45253;BME280;63171;50.520;30.486;2023-02-15T00:48:01;100923.66;;;1.87;68.10
45253;BME280;63171;50.520;30.486;2023-02-15T00:48:51;100916.81;;;1.82;67.48
45253;BME280;63171;50.520;30.486;2023-02-15T00:49:41;100920.19;;;1.87;67.70
45253;BME280;63171;50.520;30.486;2023-02-15T00:50:31;100916.75;;;1.86;67.62
45253;BME280;63171;50.520;30.486;2023-02-15T00:51:22;100920.22;;;1.88;67.84
45253;BME280;63171;50.520;30.486;2023-02-15T00:52:12;100912.53;;;1.81;67.62
45253;BME280;63171;50.520;30.486;2023-02-15T00:53:03;100917.69;;;1.79;67.84
45253;BME280;63171;50.520;30.486;2023-02-15T00:53:54;100924.63;;;1.77;67.74
45253;BME280;63171;50.520;30.486;2023-02-15T00:54:44;100917.75;;;1.74;67.79
45253;BME280;63171;50.520;30.486;2023-02-15T00:55:34;100919.41;;;1.80;67.90
45253;BME280;63171;50.520;30.486;2023-02-15T00:56:24;100926.25;;;1.83;67.62
45253;BME280;63171;50.520;30.486;2023-02-15T00:57:14;100925.38;;;1.85;67.37
45253;BME280;63171;50.520;30.486;2023-02-15T00:58:04;100921.91;;;1.86;67.26
45253;BME280;63171;50.520;30.486;2023-02-15T00:58:55;100923.66;;;1.84;67.26
45253;BME280;63171;50.520;30.486;2023-02-15T00:59:45;100921.03;;;1.90;67.71
45253;BME280;63171;50.520;30.486;2023-02-15T01:02:28;100926.28;;;1.81;67.30
45253;BME280;63171;50.520;30.486;2023-02-15T01:03:20;100932.31;;;1.80;67.95
45253;BME280;63171;50.520;30.486;2023-02-15T01:04:10;100927.09;;;1.88;67.64
45253;BME280;63171;50.520;30.486;2023-02-15T01:05:01;100926.25;;;1.83;67.04
45253;BME280;63171;50.520;30.486;2023-02-15T01:05:50;100919.47;;;1.75;67.24
45253;BME280;63171;50.520;30.486;2023-02-15T01:06:40;100927.22;;;1.74;66.80
45253;BME280;63171;50.520;30.486;2023-02-15T01:07:30;100923.69;;;1.83;67.00
45253;BME280;63171;50.520;30.486;2023-02-15T01:08:22;100922.78;;;1.88;67.07
45253;BME280;63171;50.520;30.486;2023-02-15T01:09:13;100931.41;;;1.89;67.42
45253;BME280;63171;50.520;30.486;2023-02-15T01:10:05;100930.53;;;1.90;67.20
45253;BME280;63171;50.520;30.486;2023-02-15T01:10:56;100927.94;;;1.90;67.03
45253;BME280;63171;50.520;30.486;2023-02-15T01:11:47;100924.41;;;1.97;66.90
45253;BME280;63171;50.520;30.486;2023-02-15T01:12:37;100925.34;;;1.87;67.02
45253;BME280;63171;50.520;30.486;2023-02-15T01:13:30;100932.25;;;1.86;67.04
45253;BME280;63171;50.520;30.486;2023-02-15T01:14:20;100928.78;;;1.92;66.94
45253;BME280;63171;50.520;30.486;2023-02-15T01:15:10;100922.78;;;1.87;66.60
45253;BME280;63171;50.520;30.486;2023-02-15T01:16:01;100924.56;;;1.82;66.49
45253;BME280;63171;50.520;30.486;2023-02-15T01:16:51;100924.56;;;1.80;66.71
45253;BME280;63171;50.520;30.486;2023-02-15T01:17:41;100917.69;;;1.79;66.25
45253;BME280;63171;50.520;30.486;2023-02-15T01:18:32;100922.81;;;1.84;66.42
45253;BME280;63171;50.520;30.486;2023-02-15T01:19:23;100920.31;;;1.76;66.52
45253;BME280;63171;50.520;30.486;2023-02-15T01:20:12;100926.41;;;1.67;66.07
45253;BME280;63171;50.520;30.486;2023-02-15T01:21:09;100916.91;;;1.74;66.56
45253;BME280;63171;50.520;30.486;2023-02-15T01:21:59;100926.25;;;1.84;66.55
45253;BME280;63171;50.520;30.486;2023-02-15T01:22:50;100925.44;;;1.81;66.53
45253;BME280;63171;50.520;30.486;2023-02-15T01:23:40;100917.63;;;1.85;65.97
45253;BME280;63171;50.520;30.486;2023-02-15T01:24:32;100921.91;;;1.86;66.39
45253;BME280;63171;50.520;30.486;2023-02-15T01:25:25;100918.47;;;1.86;66.45
45253;BME280;63171;50.520;30.486;2023-02-15T01:26:16;100920.22;;;1.85;66.38
45253;BME280;63171;50.520;30.486;2023-02-15T01:27:07;100920.22;;;1.88;65.92
45253;BME280;63171;50.520;30.486;2023-02-15T01:27:58;100922.81;;;1.84;65.69
45253;BME280;63171;50.520;30.486;2023-02-15T01:28:47;100915.91;;;1.86;65.86
45253;BME280;63171;50.520;30.486;2023-02-15T01:29:39;100918.50;;;1.84;65.85
45253;BME280;63171;50.520;30.486;2023-02-15T01:30:29;100926.31;;;1.80;65.66
45253;BME280;63171;50.520;30.486;2023-02-15T01:31:20;100924.63;;;1.75;65.30
45253;BME280;63171;50.520;30.486;2023-02-15T01:32:10;100922.00;;;1.80;65.88
45253;BME280;63171;50.520;30.486;2023-02-15T01:33:01;100920.22;;;1.84;65.51
45253;BME280;63171;50.520;30.486;2023-02-15T01:33:54;100921.09;;;1.83;65.53
45253;BME280;63171;50.520;30.486;2023-02-15T01:34:44;100921.16;;;1.78;65.17
45253;BME280;63171;50.520;30.486;2023-02-15T01:35:36;100919.47;;;1.75;65.30
45253;BME280;63171;50.520;30.486;2023-02-15T01:36:26;100919.44;;;1.77;65.58
45253;BME280;63171;50.520;30.486;2023-02-15T01:37:16;100920.25;;;1.81;65.18
45253;BME280;63171;50.520;30.486;2023-02-15T01:38:07;100922.00;;;1.78;65.04
45253;BME280;63171;50.520;30.486;2023-02-15T01:38:56;100907.41;;;1.76;65.50
45253;BME280;63171;50.520;30.486;2023-02-15T01:39:49;100922.03;;;1.77;65.18
45253;BME280;63171;50.520;30.486;2023-02-15T01:40:41;100919.47;;;1.74;65.41
45253;BME280;63171;50.520;30.486;2023-02-15T01:41:31;100914.34;;;1.68;65.26
45253;BME280;63171;50.520;30.486;2023-02-15T01:42:24;100923.00;;;1.65;65.16
45253;BME280;63171;50.520;30.486;2023-02-15T01:43:14;100914.41;;;1.65;64.92
45253;BME280;63171;50.520;30.486;2023-02-15T01:45:33;100932.50;;;1.62;65.05
45253;BME280;63171;50.520;30.486;2023-02-15T01:46:27;100924.75;;;1.63;65.01
45253;BME280;63171;50.520;30.486;2023-02-15T01:47:23;100938.44;;;1.70;65.12
45253;BME280;63171;50.520;30.486;2023-02-15T01:48:19;100931.50;;;1.73;65.02
45253;BME280;63171;50.520;30.486;2023-02-15T01:49:13;100927.25;;;1.69;64.52
45253;BME280;63171;50.520;30.486;2023-02-15T01:50:09;100935.88;;;1.68;64.56
45253;BME280;63171;50.520;30.486;2023-02-15T01:51:01;100928.09;;;1.71;64.83
45253;BME280;63171;50.520;30.486;2023-02-15T01:51:51;100921.22;;;1.69;64.42
45253;BME280;63171;50.520;30.486;2023-02-15T01:52:47;100919.63;;;1.56;64.29
45253;BME280;63171;50.520;30.486;2023-02-15T01:53:42;100923.91;;;1.58;64.29
45253;BME280;63171;50.520;30.486;2023-02-15T01:54:34;100927.38;;;1.54;64.61
45253;BME280;63171;50.520;30.486;2023-02-15T01:55:32;100929.13;;;1.52;63.99
45253;BME280;63171;50.520;30.486;2023-02-15T01:56:27;100928.31;;;1.45;64.20
45253;BME280;63171;50.520;30.486;2023-02-15T01:57:22;100928.34;;;1.42;64.34
45253;BME280;63171;50.520;30.486;2023-02-15T01:58:15;100931.75;;;1.46;64.12
45253;BME280;63171;50.520;30.486;2023-02-15T01:59:07;100932.59;;;1.50;63.86
45253;BME280;63171;50.520;30.486;2023-02-15T02:00:02;100930.03;;;1.45;63.62
45253;BME280;63171;50.520;30.486;2023-02-15T02:01:04;100936.97;;;1.40;63.94
45253;BME280;63171;50.520;30.486;2023-02-15T02:01:58;100924.97;;;1.36;63.96
45253;BME280;63171;50.520;30.486;2023-02-15T02:02:51;100931.00;;;1.30;63.41
45253;BME280;63171;50.520;30.486;2023-02-15T02:03:55;100934.44;;;1.35;63.66
45253;BME280;63171;50.520;30.486;2023-02-15T02:04:49;100930.13;;;1.34;63.26
45253;BME280;63171;50.520;30.486;2023-02-15T02:05:42;100933.56;;;1.32;63.41
45253;BME280;63171;50.520;30.486;2023-02-15T02:06:32;100928.41;;;1.32;63.26
45253;BME280;63171;50.520;30.486;2023-02-15T02:07:27;100931.91;;;1.26;63.17
45253;BME280;63171;50.520;30.486;2023-02-15T02:08:18;100925.81;;;1.33;63.35
45253;BME280;63171;50.520;30.486;2023-02-15T02:09:10;100937.03;;;1.31;63.39
45253;BME280;63171;50.520;30.486;2023-02-15T02:10:01;100933.63;;;1.26;63.12
45253;BME280;63171;50.520;30.486;2023-02-15T02:10:54;100930.16;;;1.28;63.04
45253;BME280;63171;50.520;30.486;2023-02-15T02:11:46;100937.03;;;1.31;62.87
45253;BME280;63171;50.520;30.486;2023-02-15T02:12:40;100933.59;;;1.30;62.83
45253;BME280;63171;50.520;30.486;2023-02-15T02:13:32;100931.03;;;1.27;62.84
45253;BME280;63171;50.520;30.486;2023-02-15T02:14:23;100943.06;;;1.28;62.50
45253;BME280;63171;50.520;30.486;2023-02-15T02:15:13;100938.72;;;1.33;62.33
45253;BME280;63171;50.520;30.486;2023-02-15T02:16:09;100949.03;;;1.38;62.36
45253;BME280;63171;50.520;30.486;2023-02-15T02:17:09;100942.13;;;1.41;62.38
45253;BME280;63171;50.520;30.486;2023-02-15T02:18:11;100935.25;;;1.39;62.18
45253;BME280;63171;50.520;30.486;2023-02-15T02:20:44;100942.13;;;1.41;61.85
45253;BME280;63171;50.520;30.486;2023-02-15T02:23:27;100934.38;;;1.40;62.16
45253;BME280;63171;50.520;30.486;2023-02-15T02:26:06;100941.25;;;1.42;61.56
45253;BME280;63171;50.520;30.486;2023-02-15T02:27:30;100943.81;;;1.47;61.94
45253;BME280;63171;50.520;30.486;2023-02-15T02:28:38;100943.78;;;1.48;61.51
45253;BME280;63171;50.520;30.486;2023-02-15T02:31:27;100934.38;;;1.41;61.56
45253;BME280;63171;50.520;30.486;2023-02-15T02:33:52;100945.63;;;1.31;61.21
45253;BME280;63171;50.520;30.486;2023-02-15T02:34:49;100941.31;;;1.33;60.94
45253;BME280;63171;50.520;30.486;2023-02-15T02:35:49;100947.38;;;1.29;60.56
45253;BME280;63171;50.520;30.486;2023-02-15T02:36:49;100941.31;;;1.36;60.92
45253;BME280;63171;50.520;30.486;2023-02-15T02:37:47;100933.47;;;1.44;61.00
45253;BME280;63171;50.520;30.486;2023-02-15T02:38:48;100950.78;;;1.36;60.83
45253;BME280;63171;50.520;30.486;2023-02-15T02:39:50;100949.03;;;1.33;61.28
45253;BME280;63171;50.520;30.486;2023-02-15T02:40:51;100942.19;;;1.31;61.06
45253;BME280;63171;50.520;30.486;2023-02-15T02:41:50;100947.31;;;1.38;60.59
45253;BME280;63171;50.520;30.486;2023-02-15T02:42:49;100946.44;;;1.39;60.77
45253;BME280;63171;50.520;30.486;2023-02-15T02:43:48;100941.22;;;1.45;60.80
45253;BME280;63171;50.520;30.486;2023-02-15T02:44:43;100942.13;;;1.40;60.78
45253;BME280;63171;50.520;30.486;2023-02-15T02:45:40;100949.91;;;1.37;60.92
45253;BME280;63171;50.520;30.486;2023-02-15T02:46:36;100945.59;;;1.37;60.67
45253;BME280;63171;50.520;30.486;2023-02-15T02:47:32;100942.13;;;1.40;60.65
45253;BME280;63171;50.520;30.486;2023-02-15T02:48:26;100939.50;;;1.47;61.00
45253;BME280;63171;50.520;30.486;2023-02-15T02:49:31;100942.94;;;1.48;60.85
45253;BME280;63171;50.520;30.486;2023-02-15T02:50:25;100948.16;;;1.40;60.61
45253;BME280;63171;50.520;30.486;2023-02-15T02:51:16;100944.69;;;1.43;60.79
45253;BME280;63171;50.520;30.486;2023-02-15T02:52:36;100950.66;;;1.46;60.68
45253;BME280;63171;50.520;30.486;2023-02-15T02:53:29;100955.84;;;1.45;60.62
45253;BME280;63171;50.520;30.486;2023-02-15T02:54:19;100946.38;;;1.47;60.75
45253;BME280;63171;50.520;30.486;2023-02-15T02:55:14;100950.66;;;1.51;60.84
45253;BME280;63171;50.520;30.486;2023-02-15T02:56:11;100948.06;;;1.53;60.94
45253;BME280;63171;50.520;30.486;2023-02-15T02:57:07;100949.69;;;1.60;61.04
45253;BME280;63171;50.520;30.486;2023-02-15T02:58:01;100948.00;;;1.57;60.99
45253;BME280;63171;50.520;30.486;2023-02-15T02:58:58;100957.56;;;1.46;60.92
45253;BME280;63171;50.520;30.486;2023-02-15T02:59:50;100951.59;;;1.39;61.20
45253;BME280;63171;50.520;30.486;2023-02-15T03:00:46;100957.69;;;1.34;60.95
45253;BME280;63171;50.520;30.486;2023-02-15T03:01:42;100949.97;;;1.28;60.66
45253;BME280;63171;50.520;30.486;2023-02-15T03:02:37;100953.38;;;1.34;61.09
45253;BME280;63171;50.520;30.486;2023-02-15T03:03:30;100958.47;;;1.40;60.83
45253;BME280;63171;50.520;30.486;2023-02-15T03:04:25;100961.00;;;1.46;60.86
45253;BME280;63171;50.520;30.486;2023-02-15T03:05:21;100954.16;;;1.41;60.73
45253;BME280;63171;50.520;30.486;2023-02-15T03:06:17;100948.97;;;1.44;60.70
45253;BME280;63171;50.520;30.486;2023-02-15T03:07:12;100960.16;;;1.43;60.95
45253;BME280;63171;50.520;30.486;2023-02-15T03:08:04;100958.47;;;1.40;60.84
45253;BME280;63171;50.520;30.486;2023-02-15T03:09:00;100961.88;;;1.44;61.08
45253;BME280;63171;50.520;30.486;2023-02-15T03:09:54;100956.72;;;1.42;60.79
45253;BME280;63171;50.520;30.486;2023-02-15T03:10:46;100959.28;;;1.44;60.72
45253;BME280;63171;50.520;30.486;2023-02-15T03:11:37;100956.75;;;1.41;60.79
45253;BME280;63171;50.520;30.486;2023-02-15T03:12:28;100962.75;;;1.41;60.78
45253;BME280;63171;50.520;30.486;2023-02-15T03:13:22;100968.81;;;1.39;60.58
45253;BME280;63171;50.520;30.486;2023-02-15T03:14:13;100961.94;;;1.36;60.92
45253;BME280;63171;50.520;30.486;2023-02-15T03:15:08;100962.75;;;1.43;60.50
45253;BME280;63171;50.520;30.486;2023-02-15T03:16:00;100961.88;;;1.42;60.71
45253;BME280;63171;50.520;30.486;2023-02-15T03:17:11;100967.91;;;1.47;60.97
45253;BME280;63171;50.520;30.486;2023-02-15T03:18:04;100963.53;;;1.53;60.90
45253;BME280;63171;50.520;30.486;2023-02-15T03:18:56;100963.59;;;1.48;61.04
45253;BME280;63171;50.520;30.486;2023-02-15T03:19:50;100961.06;;;1.40;60.55
45253;BME280;63171;50.520;30.486;2023-02-15T03:20:44;100961.88;;;1.42;60.68
45253;BME280;63171;50.520;30.486;2023-02-15T03:21:40;100949.06;;;1.35;60.68
45253;BME280;63171;50.520;30.486;2023-02-15T03:22:34;100955.94;;;1.34;60.70
45253;BME280;63171;50.520;30.486;2023-02-15T03:23:30;100960.19;;;1.40;60.88
45253;BME280;63171;50.520;30.486;2023-02-15T03:24:25;100961.94;;;1.36;60.51
45253;BME280;63171;50.520;30.486;2023-02-15T03:25:19;100961.09;;;1.34;60.94
45253;BME280;63171;50.520;30.486;2023-02-15T03:26:10;100963.66;;;1.37;60.21
45253;BME280;63171;50.520;30.486;2023-02-15T03:27:03;100953.34;;;1.37;60.65
45253;BME280;63171;50.520;30.486;2023-02-15T03:27:58;100949.91;;;1.37;60.74
45253;BME280;63171;50.520;30.486;2023-02-15T03:28:50;100957.59;;;1.43;60.18
45253;BME280;63171;50.520;30.486;2023-02-15T03:29:43;100948.09;;;1.46;60.73
45253;BME280;63171;50.520;30.486;2023-02-15T03:30:36;100960.16;;;1.47;60.41
45253;BME280;63171;50.520;30.486;2023-02-15T03:31:31;100960.16;;;1.44;60.29
45253;BME280;63171;50.520;30.486;2023-02-15T03:32:24;100958.44;;;1.45;60.10
45253;BME280;63171;50.520;30.486;2023-02-15T03:33:15;100967.03;;;1.45;60.37
45253;BME280;63171;50.520;30.486;2023-02-15T03:34:09;100962.72;;;1.49;60.43
45253;BME280;63171;50.520;30.486;2023-02-15T03:35:01;100964.44;;;1.48;60.19
45253;BME280;63171;50.520;30.486;2023-02-15T03:35:57;100960.09;;;1.52;60.04
45253;BME280;63171;50.520;30.486;2023-02-15T03:36:52;100962.72;;;1.49;60.24
45253;BME280;63171;50.520;30.486;2023-02-15T03:37:48;100966.19;;;1.43;60.15
45253;BME280;63171;50.520;30.486;2023-02-15T03:38:46;100971.38;;;1.40;60.42
45253;BME280;63171;50.520;30.486;2023-02-15T03:39:43;100963.66;;;1.39;60.37
45253;BME280;63171;50.520;30.486;2023-02-15T03:40:37;100967.97;;;1.37;60.08
45253;BME280;63171;50.520;30.486;2023-02-15T03:41:49;100969.69;;;1.33;60.01
45253;BME280;63171;50.520;30.486;2023-02-15T03:42:44;100968.84;;;1.31;59.85
45253;BME280;63171;50.520;30.486;2023-02-15T03:43:40;100968.00;;;1.29;60.23
45253;BME280;63171;50.520;30.486;2023-02-15T03:44:39;100970.59;;;1.29;60.13
45253;BME280;63171;50.520;30.486;2023-02-15T03:45:33;100968.84;;;1.36;59.98
45253;BME280;63171;50.520;30.486;2023-02-15T03:46:29;100973.16;;;1.35;60.05
45253;BME280;63171;50.520;30.486;2023-02-15T03:47:25;100976.53;;;1.42;60.05
45253;BME280;63171;50.520;30.486;2023-02-15T03:48:18;100973.03;;;1.46;60.10
45253;BME280;63171;50.520;30.486;2023-02-15T03:49:11;100973.91;;;1.50;59.92
45253;BME280;63171;50.520;30.486;2023-02-15T03:50:04;100975.63;;;1.49;59.95
45253;BME280;63171;50.520;30.486;2023-02-15T03:51:20;100973.06;;;1.47;59.69
45253;BME280;63171;50.520;30.486;2023-02-15T03:52:25;100984.31;;;1.36;59.88
45253;BME280;63171;50.520;30.486;2023-02-15T03:53:18;100978.31;;;1.32;59.83
45253;BME280;63171;50.520;30.486;2023-02-15T03:54:11;100973.13;;;1.32;59.74
45253;BME280;63171;50.520;30.486;2023-02-15T03:55:03;100981.75;;;1.31;60.00
45253;BME280;63171;50.520;30.486;2023-02-15T03:55:54;100970.56;;;1.32;60.05
45253;BME280;63171;50.520;30.486;2023-02-15T03:56:44;100979.19;;;1.34;59.80
45253;BME280;63171;50.520;30.486;2023-02-15T03:57:55;100974.81;;;1.39;59.99
45253;BME280;63171;50.520;30.486;2023-02-15T03:59:04;100963.59;;;1.45;60.30
45253;BME280;63171;50.520;30.486;2023-02-15T04:00:15;100979.06;;;1.46;60.11
45253;BME280;63171;50.520;30.486;2023-02-15T04:01:27;100971.34;;;1.45;60.11
45253;BME280;63171;50.520;30.486;2023-02-15T04:02:47;100968.81;;;1.39;60.06
45253;BME280;63171;50.520;30.486;2023-02-15T04:03:44;100965.28;;;1.46;59.64
45253;BME280;63171;50.520;30.486;2023-02-15T04:04:36;100972.22;;;1.41;60.05
45253;BME280;63171;50.520;30.486;2023-02-15T04:05:27;100974.00;;;1.36;59.60
45253;BME280;63171;50.520;30.486;2023-02-15T04:06:17;100977.44;;;1.33;60.12
45253;BME280;63171;50.520;30.486;2023-02-15T04:07:09;100981.75;;;1.31;59.98
45253;BME280;63171;50.520;30.486;2023-02-15T04:07:59;100980.88;;;1.37;60.12
45253;BME280;63171;50.520;30.486;2023-02-15T04:08:49;100980.84;;;1.40;59.94
45253;BME280;63171;50.520;30.486;2023-02-15T04:09:57;100982.53;;;1.42;59.71
45253;BME280;63171;50.520;30.486;2023-02-15T04:11:17;100986.00;;;1.40;60.03
45253;BME280;63171;50.520;30.486;2023-02-15T04:12:07;100983.44;;;1.38;60.13
45253;BME280;63171;50.520;30.486;2023-02-15T04:12:58;100982.59;;;1.33;59.62
45253;BME280;63171;50.520;30.486;2023-02-15T04:13:47;100992.91;;;1.33;60.10
45253;BME280;63171;50.520;30.486;2023-02-15T04:14:45;100986.06;;;1.34;59.82
45253;BME280;63171;50.520;30.486;2023-02-15T04:15:59;100983.50;;;1.29;59.59
45253;BME280;63171;50.520;30.486;2023-02-15T04:16:54;100989.50;;;1.34;59.81
45253;BME280;63171;50.520;30.486;2023-02-15T04:17:45;100994.59;;;1.40;60.10
45253;BME280;63171;50.520;30.486;2023-02-15T04:18:38;100988.53;;;1.46;60.03
45253;BME280;63171;50.520;30.486;2023-02-15T04:19:46;100996.25;;;1.51;60.14
45253;BME280;63171;50.520;30.486;2023-02-15T04:20:54;100992.84;;;1.48;60.00
45253;BME280;63171;50.520;30.486;2023-02-15T04:22:03;100995.47;;;1.39;59.82
45253;BME280;63171;50.520;30.486;2023-02-15T04:23:11;100997.25;;;1.34;59.52
45253;BME280;63171;50.520;30.486;2023-02-15T04:24:20;100993.78;;;1.37;60.01
45253;BME280;63171;50.520;30.486;2023-02-15T04:25:28;101002.38;;;1.36;60.16
45253;BME280;63171;50.520;30.486;2023-02-15T04:26:19;100992.06;;;1.37;59.91
45253;BME280;63171;50.520;30.486;2023-02-15T04:27:09;100993.75;;;1.40;60.25
45253;BME280;63171;50.520;30.486;2023-02-15T04:27:59;100993.78;;;1.37;59.95
45253;BME280;63171;50.520;30.486;2023-02-15T04:28:49;100986.88;;;1.40;59.92
45253;BME280;63171;50.520;30.486;2023-02-15T04:29:39;100983.44;;;1.40;59.82
45253;BME280;63171;50.520;30.486;2023-02-15T04:30:29;100981.72;;;1.39;59.82
45253;BME280;63171;50.520;30.486;2023-02-15T04:31:20;100983.38;;;1.44;60.22
45253;BME280;63171;50.520;30.486;2023-02-15T04:32:11;100991.13;;;1.47;59.82
45253;BME280;63171;50.520;30.486;2023-02-15T04:33:02;100994.56;;;1.48;60.25
45253;BME280;63171;50.520;30.486;2023-02-15T04:33:52;100991.13;;;1.49;59.90
45253;BME280;63171;50.520;30.486;2023-02-15T04:34:42;100987.69;;;1.44;60.26
45253;BME280;63171;50.520;30.486;2023-02-15T04:35:32;100996.28;;;1.49;60.13
45253;BME280;63171;50.520;30.486;2023-02-15T04:36:24;100996.28;;;1.44;60.06
45253;BME280;63171;50.520;30.486;2023-02-15T04:37:13;100987.72;;;1.39;59.87
45253;BME280;63171;50.520;30.486;2023-02-15T04:38:04;100987.75;;;1.36;60.03
45253;BME280;63171;50.520;30.486;2023-02-15T04:38:54;100999.81;;;1.36;60.22
45253;BME280;63171;50.520;30.486;2023-02-15T04:39:43;100997.19;;;1.40;59.80
45253;BME280;63171;50.520;30.486;2023-02-15T04:40:34;100998.06;;;1.39;59.71
45253;BME280;63171;50.520;30.486;2023-02-15T04:41:24;100998.94;;;1.38;60.04
45253;BME280;63171;50.520;30.486;2023-02-15T04:42:15;100995.53;;;1.29;60.20
45253;BME280;63171;50.520;30.486;2023-02-15T04:43:04;100997.25;;;1.31;59.72
45253;BME280;63171;50.520;30.486;2023-02-15T04:43:55;100993.78;;;1.32;59.88
45253;BME280;63171;50.520;30.486;2023-02-15T04:44:45;100986.91;;;1.36;60.07
45253;BME280;63171;50.520;30.486;2023-02-15T04:45:36;100993.75;;;1.38;60.23
45253;BME280;63171;50.520;30.486;2023-02-15T04:46:26;100991.25;;;1.28;60.00
45253;BME280;63171;50.520;30.486;2023-02-15T04:47:17;100999.00;;;1.26;60.29
45253;BME280;63171;50.520;30.486;2023-02-15T04:48:08;100998.97;;;1.34;60.37
45253;BME280;63171;50.520;30.486;2023-02-15T04:48:59;100998.97;;;1.29;59.92
45253;BME280;63171;50.520;30.486;2023-02-15T04:49:49;101005.84;;;1.30;60.07
45253;BME280;63171;50.520;30.486;2023-02-15T04:50:39;100998.09;;;1.36;60.03
45253;BME280;63171;50.520;30.486;2023-02-15T04:51:29;100998.97;;;1.31;59.91
45253;BME280;63171;50.520;30.486;2023-02-15T04:52:20;101002.38;;;1.33;60.24
45253;BME280;63171;50.520;30.486;2023-02-15T04:53:10;100993.81;;;1.28;59.98